sensor_id;sensor_type;location;lat;lon;timestamp;temperature;humidity
19755;DHT22;10036;47.812;9.274;2024-02-04T00:00:32;1.50;99.90
19755;DHT22;10036;47.812;9.274;2024-02-04T00:03:00;1.50;99.90
19755;DHT22;10036;47.812;9.274;2024-02-04T00:05:27;1.50;99.90
19755;DHT22;10036;47.812;9.274;2024-02-04T00:07:54;1.50;99.90
19755;DHT22;10036;47.812;9.274;2024-02-04T00:10:21;1.60;99.90
19755;DHT22;10036;47.812;9.274;2024-02-04T00:12:48;1.60;99.90
19755;DHT22;10036;47.812;9.274;2024-02-04T00:15:14;1.70;99.90
19755;DHT22;10036;47.812;9.274;2024-02-04T00:17:41;1.80;99.90
19755;DHT22;10036;47.812;9.274;2024-02-04T00:20:10;1.80;99.90
19755;DHT22;10036;47.812;9.274;2024-02-04T00:22:37;1.80;99.90
19755;DHT22;10036;47.812;9.274;2024-02-04T00:25:04;1.70;99.90
19755;DHT22;10036;47.812;9.274;2024-02-04T00:27:31;1.80;99.90
19755;DHT22;10036;47.812;9.274;2024-02-04T00:29:57;1.80;99.90
19755;DHT22;10036;47.812;9.274;2024-02-04T00:32:24;1.80;99.90
19755;DHT22;10036;47.812;9.274;2024-02-04T00:34:51;1.90;99.90
19755;DHT22;10036;47.812;9.274;2024-02-04T00:37:20;1.80;99.90
19755;DHT22;10036;47.812;9.274;2024-02-04T00:39:47;1.80;99.90
19755;DHT22;10036;47.812;9.274;2024-02-04T00:42:13;1.80;99.90
19755;DHT22;10036;47.812;9.274;2024-02-04T00:44:40;1.90;99.90
19755;DHT22;10036;47.812;9.274;2024-02-04T00:47:07;1.90;99.90
19755;DHT22;10036;47.812;9.274;2024-02-04T00:49:34;1.90;99.90
19755;DHT22;10036;47.812;9.274;2024-02-04T00:52:01;2.00;99.90
19755;DHT22;10036;47.812;9.274;2024-02-04T00:54:29;2.10;99.90
19755;DHT22;10036;47.812;9.274;2024-02-04T00:56:56;2.10;99.90
19755;DHT22;10036;47.812;9.274;2024-02-04T00:59:23;2.20;99.90
19755;DHT22;10036;47.812;9.274;2024-02-04T01:01:50;2.10;99.90
19755;DHT22;10036;47.812;9.274;2024-02-04T01:04:17;2.10;99.90
19755;DHT22;10036;47.812;9.274;2024-02-04T01:06:44;2.30;99.90
19755;DHT22;10036;47.812;9.274;2024-02-04T01:09:10;2.10;99.90
19755;DHT22;10036;47.812;9.274;2024-02-04T01:11:39;2.20;99.90
19755;DHT22;10036;47.812;9.274;2024-02-04T01:14:06;2.30;99.90
19755;DHT22;10036;47.812;9.274;2024-02-04T01:16:32;2.10;99.90
19755;DHT22;10036;47.812;9.274;2024-02-04T01:18:59;2.00;99.90
19755;DHT22;10036;47.812;9.274;2024-02-04T01:21:26;1.90;99.90
19755;DHT22;10036;47.812;9.274;2024-02-04T01:23:53;1.90;99.90
19755;DHT22;10036;47.812;9.274;2024-02-04T01:26:20;1.80;99.90
19755;DHT22;10036;47.812;9.274;2024-02-04T01:28:50;1.80;99.90
19755;DHT22;10036;47.812;9.274;2024-02-04T01:31:17;1.70;99.90
19755;DHT22;10036;47.812;9.274;2024-02-04T01:33:44;1.80;99.90
19755;DHT22;10036;47.812;9.274;2024-02-04T01:36:10;1.60;99.90
19755;DHT22;10036;47.812;9.274;2024-02-04T01:38:38;1.70;99.90
19755;DHT22;10036;47.812;9.274;2024-02-04T01:41:04;1.60;99.90
19755;DHT22;10036;47.812;9.274;2024-02-04T01:43:31;1.70;99.90
19755;DHT22;10036;47.812;9.274;2024-02-04T01:46:00;1.70;99.90
19755;DHT22;10036;47.812;9.274;2024-02-04T01:48:27;1.70;99.90
19755;DHT22;10036;47.812;9.274;2024-02-04T01:50:55;1.80;99.90
19755;DHT22;10036;47.812;9.274;2024-02-04T01:53:24;1.80;99.90
19755;DHT22;10036;47.812;9.274;2024-02-04T01:55:52;1.90;99.90
19755;DHT22;10036;47.812;9.274;2024-02-04T01:58:20;2.00;99.90
19755;DHT22;10036;47.812;9.274;2024-02-04T02:00:48;2.10;99.90
19755;DHT22;10036;47.812;9.274;2024-02-04T02:03:17;2.20;99.90
19755;DHT22;10036;47.812;9.274;2024-02-04T02:05:45;2.20;99.90
19755;DHT22;10036;47.812;9.274;2024-02-04T02:08:12;2.30;99.90
19755;DHT22;10036;47.812;9.274;2024-02-04T02:10:39;2.40;99.90
19755;DHT22;10036;47.812;9.274;2024-02-04T02:13:17;2.30;99.90
19755;DHT22;10036;47.812;9.274;2024-02-04T02:15:49;2.60;99.90
19755;DHT22;10036;47.812;9.274;2024-02-04T02:18:23;2.60;99.90
19755;DHT22;10036;47.812;9.274;2024-02-04T02:21:04;2.60;99.90
19755;DHT22;10036;47.812;9.274;2024-02-04T02:23:36;2.60;99.90
19755;DHT22;10036;47.812;9.274;2024-02-04T02:26:07;2.60;99.90
19755;DHT22;10036;47.812;9.274;2024-02-04T02:28:34;2.60;99.90
19755;DHT22;10036;47.812;9.274;2024-02-04T02:31:01;2.70;99.90
19755;DHT22;10036;47.812;9.274;2024-02-04T02:33:28;2.60;99.90
19755;DHT22;10036;47.812;9.274;2024-02-04T02:35:58;2.60;99.90
19755;DHT22;10036;47.812;9.274;2024-02-04T02:38:35;2.60;99.90
19755;DHT22;10036;47.812;9.274;2024-02-04T02:41:05;2.60;99.90
19755;DHT22;10036;47.812;9.274;2024-02-04T02:43:35;2.60;99.90
19755;DHT22;10036;47.812;9.274;2024-02-04T02:46:07;2.50;99.90
19755;DHT22;10036;47.812;9.274;2024-02-04T02:48:34;2.40;99.90
19755;DHT22;10036;47.812;9.274;2024-02-04T02:51:01;2.50;99.90
19755;DHT22;10036;47.812;9.274;2024-02-04T02:53:28;2.50;99.90
19755;DHT22;10036;47.812;9.274;2024-02-04T02:55:55;2.50;99.90
19755;DHT22;10036;47.812;9.274;2024-02-04T02:58:22;2.50;99.90
19755;DHT22;10036;47.812;9.274;2024-02-04T03:00:50;2.60;99.90
19755;DHT22;10036;47.812;9.274;2024-02-04T03:03:17;2.60;99.90
19755;DHT22;10036;47.812;9.274;2024-02-04T03:09:05;2.70;99.90
19755;DHT22;10036;47.812;9.274;2024-02-04T03:11:32;2.80;99.90
19755;DHT22;10036;47.812;9.274;2024-02-04T03:13:59;2.80;99.90
19755;DHT22;10036;47.812;9.274;2024-02-04T03:16:27;2.70;99.90
19755;DHT22;10036;47.812;9.274;2024-02-04T03:18:54;2.90;99.90
19755;DHT22;10036;47.812;9.274;2024-02-04T03:21:21;2.90;99.90
19755;DHT22;10036;47.812;9.274;2024-02-04T03:23:48;2.90;99.90
19755;DHT22;10036;47.812;9.274;2024-02-04T03:26:17;3.10;99.90
19755;DHT22;10036;47.812;9.274;2024-02-04T03:28:45;3.00;99.90
19755;DHT22;10036;47.812;9.274;2024-02-04T03:31:11;3.00;99.90
19755;DHT22;10036;47.812;9.274;2024-02-04T03:33:40;3.10;99.90
19755;DHT22;10036;47.812;9.274;2024-02-04T03:36:07;3.20;99.90
19755;DHT22;10036;47.812;9.274;2024-02-04T03:38:34;3.20;99.90
19755;DHT22;10036;47.812;9.274;2024-02-04T03:41:00;3.20;99.90
19755;DHT22;10036;47.812;9.274;2024-02-04T03:43:27;3.20;99.90
19755;DHT22;10036;47.812;9.274;2024-02-04T03:45:54;3.30;99.90
19755;DHT22;10036;47.812;9.274;2024-02-04T03:48:21;3.50;99.90
19755;DHT22;10036;47.812;9.274;2024-02-04T03:50:49;3.50;99.90
19755;DHT22;10036;47.812;9.274;2024-02-04T03:53:16;3.50;99.90
19755;DHT22;10036;47.812;9.274;2024-02-04T03:55:44;3.50;99.90
19755;DHT22;10036;47.812;9.274;2024-02-04T03:58:11;3.50;99.90
19755;DHT22;10036;47.812;9.274;2024-02-04T04:00:38;3.50;99.90
19755;DHT22;10036;47.812;9.274;2024-02-04T04:03:05;3.60;99.90
19755;DHT22;10036;47.812;9.274;2024-02-04T04:05:32;3.60;99.90
19755;DHT22;10036;47.812;9.274;2024-02-04T04:08:00;3.60;99.90
19755;DHT22;10036;47.812;9.274;2024-02-04T04:10:27;3.60;99.90
19755;DHT22;10036;47.812;9.274;2024-02-04T04:12:54;3.60;99.90
19755;DHT22;10036;47.812;9.274;2024-02-04T04:15:21;3.70;99.90
19755;DHT22;10036;47.812;9.274;2024-02-04T04:17:48;3.60;99.90
19755;DHT22;10036;47.812;9.274;2024-02-04T04:20:15;3.50;99.90
19755;DHT22;10036;47.812;9.274;2024-02-04T04:22:42;3.40;99.90
19755;DHT22;10036;47.812;9.274;2024-02-04T04:25:10;3.40;99.90
19755;DHT22;10036;47.812;9.274;2024-02-04T04:27:57;3.30;99.90
19755;DHT22;10036;47.812;9.274;2024-02-04T04:30:24;3.30;99.90
19755;DHT22;10036;47.812;9.274;2024-02-04T04:32:51;3.30;99.90
19755;DHT22;10036;47.812;9.274;2024-02-04T04:35:18;3.30;99.90
19755;DHT22;10036;47.812;9.274;2024-02-04T04:37:45;3.30;99.90
19755;DHT22;10036;47.812;9.274;2024-02-04T04:40:13;3.30;99.90
19755;DHT22;10036;47.812;9.274;2024-02-04T04:42:40;3.30;99.90
19755;DHT22;10036;47.812;9.274;2024-02-04T04:45:07;3.30;99.90
19755;DHT22;10036;47.812;9.274;2024-02-04T04:47:34;3.30;99.90
19755;DHT22;10036;47.812;9.274;2024-02-04T04:50:01;3.40;99.90
19755;DHT22;10036;47.812;9.274;2024-02-04T04:52:28;3.30;99.90
19755;DHT22;10036;47.812;9.274;2024-02-04T04:54:55;3.30;99.90
19755;DHT22;10036;47.812;9.274;2024-02-04T04:57:23;3.40;99.90
19755;DHT22;10036;47.812;9.274;2024-02-04T04:59:50;3.40;99.90
19755;DHT22;10036;47.812;9.274;2024-02-04T05:02:17;3.40;99.90
19755;DHT22;10036;47.812;9.274;2024-02-04T05:04:44;3.40;99.90
19755;DHT22;10036;47.812;9.274;2024-02-04T05:10:19;3.60;99.90
19755;DHT22;10036;47.812;9.274;2024-02-04T05:12:47;3.70;99.90
19755;DHT22;10036;47.812;9.274;2024-02-04T05:15:14;3.80;99.90
19755;DHT22;10036;47.812;9.274;2024-02-04T05:17:41;3.80;99.90
19755;DHT22;10036;47.812;9.274;2024-02-04T05:20:09;3.80;99.90
19755;DHT22;10036;47.812;9.274;2024-02-04T05:22:36;3.80;99.90
19755;DHT22;10036;47.812;9.274;2024-02-04T05:25:03;3.70;99.90
19755;DHT22;10036;47.812;9.274;2024-02-04T05:27:31;3.80;99.90
19755;DHT22;10036;47.812;9.274;2024-02-04T05:30:01;3.80;99.90
19755;DHT22;10036;47.812;9.274;2024-02-04T05:32:28;3.90;99.90
19755;DHT22;10036;47.812;9.274;2024-02-04T05:34:55;3.80;99.90
19755;DHT22;10036;47.812;9.274;2024-02-04T05:37:22;3.90;99.90
19755;DHT22;10036;47.812;9.274;2024-02-04T05:39:49;3.90;99.90
19755;DHT22;10036;47.812;9.274;2024-02-04T05:42:15;3.90;99.90
19755;DHT22;10036;47.812;9.274;2024-02-04T05:44:42;3.90;99.90
19755;DHT22;10036;47.812;9.274;2024-02-04T05:47:11;3.90;99.90
19755;DHT22;10036;47.812;9.274;2024-02-04T05:49:37;4.00;99.90
19755;DHT22;10036;47.812;9.274;2024-02-04T05:52:05;4.10;99.90
19755;DHT22;10036;47.812;9.274;2024-02-04T05:54:32;4.00;99.90
19755;DHT22;10036;47.812;9.274;2024-02-04T05:57:03;4.00;99.90
19755;DHT22;10036;47.812;9.274;2024-02-04T05:59:30;4.10;99.90
19755;DHT22;10036;47.812;9.274;2024-02-04T06:01:57;4.10;99.90
19755;DHT22;10036;47.812;9.274;2024-02-04T06:04:25;4.00;99.90
19755;DHT22;10036;47.812;9.274;2024-02-04T06:06:52;4.00;99.90
19755;DHT22;10036;47.812;9.274;2024-02-04T06:09:19;4.00;99.90
19755;DHT22;10036;47.812;9.274;2024-02-04T06:11:46;4.00;99.90
19755;DHT22;10036;47.812;9.274;2024-02-04T06:14:13;4.00;99.90
19755;DHT22;10036;47.812;9.274;2024-02-04T06:16:40;4.10;99.90
19755;DHT22;10036;47.812;9.274;2024-02-04T06:19:07;4.20;99.90
19755;DHT22;10036;47.812;9.274;2024-02-04T06:21:36;4.00;99.90
19755;DHT22;10036;47.812;9.274;2024-02-04T06:24:03;4.10;99.90
19755;DHT22;10036;47.812;9.274;2024-02-04T06:26:29;4.10;99.90
19755;DHT22;10036;47.812;9.274;2024-02-04T06:28:56;4.00;99.90
19755;DHT22;10036;47.812;9.274;2024-02-04T06:31:23;4.10;99.90
19755;DHT22;10036;47.812;9.274;2024-02-04T06:33:50;4.10;99.90
19755;DHT22;10036;47.812;9.274;2024-02-04T06:36:17;4.20;99.90
19755;DHT22;10036;47.812;9.274;2024-02-04T06:38:45;4.10;99.90
19755;DHT22;10036;47.812;9.274;2024-02-04T06:41:12;4.20;99.90
19755;DHT22;10036;47.812;9.274;2024-02-04T06:43:39;4.20;99.90
19755;DHT22;10036;47.812;9.274;2024-02-04T06:46:06;4.10;99.90
19755;DHT22;10036;47.812;9.274;2024-02-04T06:48:33;4.30;99.90
19755;DHT22;10036;47.812;9.274;2024-02-04T06:51:00;4.20;99.90
19755;DHT22;10036;47.812;9.274;2024-02-04T06:53:27;4.30;99.90
19755;DHT22;10036;47.812;9.274;2024-02-04T06:55:55;4.20;99.90
19755;DHT22;10036;47.812;9.274;2024-02-04T06:58:22;4.10;99.90
19755;DHT22;10036;47.812;9.274;2024-02-04T07:00:49;4.30;99.90
19755;DHT22;10036;47.812;9.274;2024-02-04T07:03:16;4.20;99.90
19755;DHT22;10036;47.812;9.274;2024-02-04T07:05:43;4.20;99.90
19755;DHT22;10036;47.812;9.274;2024-02-04T07:08:12;4.20;99.90
19755;DHT22;10036;47.812;9.274;2024-02-04T07:10:39;4.30;99.90
19755;DHT22;10036;47.812;9.274;2024-02-04T07:13:07;4.30;99.90
19755;DHT22;10036;47.812;9.274;2024-02-04T07:15:37;4.30;99.90
19755;DHT22;10036;47.812;9.274;2024-02-04T07:18:04;4.30;99.90
19755;DHT22;10036;47.812;9.274;2024-02-04T07:20:31;4.30;99.90
19755;DHT22;10036;47.812;9.274;2024-02-04T07:22:58;4.30;99.90
19755;DHT22;10036;47.812;9.274;2024-02-04T07:25:25;4.40;99.90
19755;DHT22;10036;47.812;9.274;2024-02-04T07:27:51;4.40;99.90
19755;DHT22;10036;47.812;9.274;2024-02-04T07:30:20;4.40;99.90
19755;DHT22;10036;47.812;9.274;2024-02-04T07:32:47;4.30;99.90
19755;DHT22;10036;47.812;9.274;2024-02-04T07:35:14;4.30;99.90
19755;DHT22;10036;47.812;9.274;2024-02-04T07:37:41;4.40;99.90
19755;DHT22;10036;47.812;9.274;2024-02-04T07:40:08;4.40;99.90
19755;DHT22;10036;47.812;9.274;2024-02-04T07:42:35;4.40;99.90
19755;DHT22;10036;47.812;9.274;2024-02-04T07:45:03;4.40;99.90
19755;DHT22;10036;47.812;9.274;2024-02-04T07:47:35;4.50;99.90
19755;DHT22;10036;47.812;9.274;2024-02-04T07:50:03;4.50;99.90
19755;DHT22;10036;47.812;9.274;2024-02-04T07:52:30;4.50;99.90
19755;DHT22;10036;47.812;9.274;2024-02-04T07:54:56;4.50;99.90
19755;DHT22;10036;47.812;9.274;2024-02-04T07:57:24;4.40;99.90
19755;DHT22;10036;47.812;9.274;2024-02-04T07:59:50;4.50;99.90
19755;DHT22;10036;47.812;9.274;2024-02-04T08:02:18;4.70;99.90
19755;DHT22;10036;47.812;9.274;2024-02-04T08:04:46;4.60;99.90
19755;DHT22;10036;47.812;9.274;2024-02-04T08:07:13;4.60;99.90
19755;DHT22;10036;47.812;9.274;2024-02-04T08:09:40;4.60;99.90
19755;DHT22;10036;47.812;9.274;2024-02-04T08:12:07;4.60;99.90
19755;DHT22;10036;47.812;9.274;2024-02-04T08:14:35;4.60;99.90
19755;DHT22;10036;47.812;9.274;2024-02-04T08:17:02;4.70;99.90
19755;DHT22;10036;47.812;9.274;2024-02-04T08:19:29;4.70;99.90
19755;DHT22;10036;47.812;9.274;2024-02-04T08:21:57;4.70;99.90
19755;DHT22;10036;47.812;9.274;2024-02-04T08:24:24;4.70;99.90
19755;DHT22;10036;47.812;9.274;2024-02-04T08:26:51;4.70;99.90
19755;DHT22;10036;47.812;9.274;2024-02-04T08:29:18;4.90;99.90
19755;DHT22;10036;47.812;9.274;2024-02-04T08:31:45;4.90;99.90
19755;DHT22;10036;47.812;9.274;2024-02-04T08:34:12;4.90;99.90
19755;DHT22;10036;47.812;9.274;2024-02-04T08:36:39;4.90;99.90
19755;DHT22;10036;47.812;9.274;2024-02-04T08:39:07;4.90;99.90
19755;DHT22;10036;47.812;9.274;2024-02-04T08:41:35;4.90;99.90
19755;DHT22;10036;47.812;9.274;2024-02-04T08:44:01;4.90;99.90
19755;DHT22;10036;47.812;9.274;2024-02-04T08:46:28;5.10;99.90
19755;DHT22;10036;47.812;9.274;2024-02-04T08:48:56;4.90;99.90
19755;DHT22;10036;47.812;9.274;2024-02-04T08:51:22;5.00;99.90
19755;DHT22;10036;47.812;9.274;2024-02-04T08:53:49;5.10;99.90
19755;DHT22;10036;47.812;9.274;2024-02-04T08:56:18;5.10;99.90
19755;DHT22;10036;47.812;9.274;2024-02-04T08:58:45;5.20;99.90
19755;DHT22;10036;47.812;9.274;2024-02-04T09:01:12;5.10;99.90
19755;DHT22;10036;47.812;9.274;2024-02-04T09:03:39;5.20;99.90
19755;DHT22;10036;47.812;9.274;2024-02-04T09:06:06;5.30;99.90
19755;DHT22;10036;47.812;9.274;2024-02-04T09:08:33;5.50;99.90
19755;DHT22;10036;47.812;9.274;2024-02-04T09:10:59;5.60;99.90
19755;DHT22;10036;47.812;9.274;2024-02-04T09:13:28;5.50;99.90
19755;DHT22;10036;47.812;9.274;2024-02-04T09:15:55;5.50;99.90
19755;DHT22;10036;47.812;9.274;2024-02-04T09:18:22;5.60;99.90
19755;DHT22;10036;47.812;9.274;2024-02-04T09:20:48;5.60;99.90
19755;DHT22;10036;47.812;9.274;2024-02-04T09:23:15;5.50;99.90
19755;DHT22;10036;47.812;9.274;2024-02-04T09:25:42;5.60;99.90
19755;DHT22;10036;47.812;9.274;2024-02-04T09:28:09;5.60;99.90
19755;DHT22;10036;47.812;9.274;2024-02-04T09:30:37;5.60;99.90
19755;DHT22;10036;47.812;9.274;2024-02-04T09:33:04;5.60;99.90
19755;DHT22;10036;47.812;9.274;2024-02-04T09:35:31;5.70;99.90
19755;DHT22;10036;47.812;9.274;2024-02-04T09:37:58;5.70;99.90
19755;DHT22;10036;47.812;9.274;2024-02-04T09:40:25;5.70;99.90
19755;DHT22;10036;47.812;9.274;2024-02-04T09:42:52;5.70;99.90
19755;DHT22;10036;47.812;9.274;2024-02-04T09:45:20;5.90;99.90
19755;DHT22;10036;47.812;9.274;2024-02-04T09:47:50;5.80;99.90
19755;DHT22;10036;47.812;9.274;2024-02-04T09:50:18;5.70;99.90
19755;DHT22;10036;47.812;9.274;2024-02-04T09:52:48;5.80;99.90
19755;DHT22;10036;47.812;9.274;2024-02-04T09:55:17;5.80;99.90
19755;DHT22;10036;47.812;9.274;2024-02-04T09:57:47;5.80;99.90
19755;DHT22;10036;47.812;9.274;2024-02-04T10:00:14;5.70;99.90
19755;DHT22;10036;47.812;9.274;2024-02-04T10:02:45;5.70;99.90
19755;DHT22;10036;47.812;9.274;2024-02-04T10:05:15;5.80;99.90
19755;DHT22;10036;47.812;9.274;2024-02-04T10:07:42;5.90;99.90
19755;DHT22;10036;47.812;9.274;2024-02-04T10:10:09;5.90;99.90
19755;DHT22;10036;47.812;9.274;2024-02-04T10:12:37;5.90;99.90
19755;DHT22;10036;47.812;9.274;2024-02-04T10:15:07;5.90;99.90
19755;DHT22;10036;47.812;9.274;2024-02-04T10:17:34;5.90;99.90
19755;DHT22;10036;47.812;9.274;2024-02-04T10:20:01;5.90;99.90
19755;DHT22;10036;47.812;9.274;2024-02-04T10:22:29;6.00;99.90
19755;DHT22;10036;47.812;9.274;2024-02-04T10:25:05;6.10;99.90
19755;DHT22;10036;47.812;9.274;2024-02-04T10:27:32;6.30;99.90
19755;DHT22;10036;47.812;9.274;2024-02-04T10:30:00;6.30;99.90
19755;DHT22;10036;47.812;9.274;2024-02-04T10:32:27;6.40;99.90
19755;DHT22;10036;47.812;9.274;2024-02-04T10:34:54;6.30;99.90
19755;DHT22;10036;47.812;9.274;2024-02-04T10:37:21;6.60;99.90
19755;DHT22;10036;47.812;9.274;2024-02-04T10:39:49;6.50;99.90
19755;DHT22;10036;47.812;9.274;2024-02-04T10:42:17;6.70;99.90
19755;DHT22;10036;47.812;9.274;2024-02-04T10:44:49;6.90;99.90
19755;DHT22;10036;47.812;9.274;2024-02-04T10:47:22;6.90;99.90
19755;DHT22;10036;47.812;9.274;2024-02-04T10:49:50;6.90;99.90
19755;DHT22;10036;47.812;9.274;2024-02-04T10:52:19;6.90;99.90
19755;DHT22;10036;47.812;9.274;2024-02-04T10:54:47;7.00;99.90
19755;DHT22;10036;47.812;9.274;2024-02-04T10:57:20;7.00;99.90
19755;DHT22;10036;47.812;9.274;2024-02-04T10:59:48;7.10;99.90
19755;DHT22;10036;47.812;9.274;2024-02-04T11:02:16;7.20;99.90
19755;DHT22;10036;47.812;9.274;2024-02-04T11:04:43;7.00;99.90
19755;DHT22;10036;47.812;9.274;2024-02-04T11:07:13;7.00;99.90
19755;DHT22;10036;47.812;9.274;2024-02-04T11:09:40;7.00;99.90
19755;DHT22;10036;47.812;9.274;2024-02-04T11:12:11;6.90;99.90
19755;DHT22;10036;47.812;9.274;2024-02-04T11:14:44;7.10;99.90
19755;DHT22;10036;47.812;9.274;2024-02-04T11:17:28;7.20;99.90
19755;DHT22;10036;47.812;9.274;2024-02-04T11:20:15;7.20;99.90
19755;DHT22;10036;47.812;9.274;2024-02-04T11:23:09;7.40;99.90
19755;DHT22;10036;47.812;9.274;2024-02-04T11:25:45;7.50;99.90
19755;DHT22;10036;47.812;9.274;2024-02-04T11:28:13;7.70;99.90
19755;DHT22;10036;47.812;9.274;2024-02-04T11:30:44;7.70;99.90
19755;DHT22;10036;47.812;9.274;2024-02-04T11:33:12;7.90;99.90
19755;DHT22;10036;47.812;9.274;2024-02-04T11:35:43;7.90;99.90
19755;DHT22;10036;47.812;9.274;2024-02-04T11:38:10;7.90;99.90
19755;DHT22;10036;47.812;9.274;2024-02-04T11:40:39;7.90;99.90
19755;DHT22;10036;47.812;9.274;2024-02-04T11:43:10;8.00;99.90
19755;DHT22;10036;47.812;9.274;2024-02-04T11:45:38;8.00;99.90
19755;DHT22;10036;47.812;9.274;2024-02-04T11:48:09;8.00;99.90
19755;DHT22;10036;47.812;9.274;2024-02-04T11:50:37;8.20;99.90
19755;DHT22;10036;47.812;9.274;2024-02-04T11:53:08;8.20;99.90
19755;DHT22;10036;47.812;9.274;2024-02-04T11:55:36;8.30;99.90
19755;DHT22;10036;47.812;9.274;2024-02-04T11:58:05;8.30;99.90
19755;DHT22;10036;47.812;9.274;2024-02-04T12:00:33;8.30;99.90
19755;DHT22;10036;47.812;9.274;2024-02-04T12:03:01;8.20;99.90
19755;DHT22;10036;47.812;9.274;2024-02-04T12:05:32;8.30;99.90
19755;DHT22;10036;47.812;9.274;2024-02-04T12:08:00;8.40;99.90
19755;DHT22;10036;47.812;9.274;2024-02-04T12:10:29;8.40;99.90
19755;DHT22;10036;47.812;9.274;2024-02-04T12:12:58;8.30;99.90
19755;DHT22;10036;47.812;9.274;2024-02-04T12:15:25;8.40;99.90
19755;DHT22;10036;47.812;9.274;2024-02-04T12:17:52;8.40;99.90
19755;DHT22;10036;47.812;9.274;2024-02-04T12:20:19;8.40;99.90
19755;DHT22;10036;47.812;9.274;2024-02-04T12:22:48;8.50;99.90
19755;DHT22;10036;47.812;9.274;2024-02-04T12:25:16;8.40;99.90
19755;DHT22;10036;47.812;9.274;2024-02-04T12:27:44;8.60;99.90
19755;DHT22;10036;47.812;9.274;2024-02-04T12:30:13;8.70;99.90
19755;DHT22;10036;47.812;9.274;2024-02-04T12:32:40;8.80;99.90
19755;DHT22;10036;47.812;9.274;2024-02-04T12:35:08;8.80;99.90
19755;DHT22;10036;47.812;9.274;2024-02-04T12:37:35;8.80;99.90
19755;DHT22;10036;47.812;9.274;2024-02-04T12:40:04;8.70;99.90
19755;DHT22;10036;47.812;9.274;2024-02-04T12:42:31;8.90;99.90
19755;DHT22;10036;47.812;9.274;2024-02-04T12:44:59;9.00;99.90
19755;DHT22;10036;47.812;9.274;2024-02-04T12:47:26;9.00;99.90
19755;DHT22;10036;47.812;9.274;2024-02-04T12:49:58;9.10;99.90
19755;DHT22;10036;47.812;9.274;2024-02-04T12:52:26;9.00;99.90
19755;DHT22;10036;47.812;9.274;2024-02-04T12:54:53;9.10;99.90
19755;DHT22;10036;47.812;9.274;2024-02-04T12:57:25;9.20;99.90
19755;DHT22;10036;47.812;9.274;2024-02-04T13:00:03;9.40;99.90
19755;DHT22;10036;47.812;9.274;2024-02-04T13:02:30;9.50;99.90
19755;DHT22;10036;47.812;9.274;2024-02-04T13:04:59;9.50;99.90
19755;DHT22;10036;47.812;9.274;2024-02-04T13:07:26;9.50;99.90
19755;DHT22;10036;47.812;9.274;2024-02-04T13:09:58;9.70;99.90
19755;DHT22;10036;47.812;9.274;2024-02-04T13:12:26;9.80;99.90
19755;DHT22;10036;47.812;9.274;2024-02-04T13:14:53;9.70;99.90
19755;DHT22;10036;47.812;9.274;2024-02-04T13:17:20;9.50;99.90
19755;DHT22;10036;47.812;9.274;2024-02-04T13:19:47;9.50;99.90
19755;DHT22;10036;47.812;9.274;2024-02-04T13:22:14;9.50;99.90
19755;DHT22;10036;47.812;9.274;2024-02-04T13:24:41;9.70;99.90
19755;DHT22;10036;47.812;9.274;2024-02-04T13:27:08;9.70;99.90
19755;DHT22;10036;47.812;9.274;2024-02-04T13:29:36;9.80;99.90
19755;DHT22;10036;47.812;9.274;2024-02-04T13:32:04;9.90;99.90
19755;DHT22;10036;47.812;9.274;2024-02-04T13:34:30;9.80;99.90
19755;DHT22;10036;47.812;9.274;2024-02-04T13:36:57;9.70;99.90
19755;DHT22;10036;47.812;9.274;2024-02-04T13:39:24;9.60;99.90
19755;DHT22;10036;47.812;9.274;2024-02-04T13:41:51;9.60;99.90
19755;DHT22;10036;47.812;9.274;2024-02-04T13:44:18;9.80;99.90
19755;DHT22;10036;47.812;9.274;2024-02-04T13:46:46;9.90;99.90
19755;DHT22;10036;47.812;9.274;2024-02-04T13:49:13;9.90;99.90
19755;DHT22;10036;47.812;9.274;2024-02-04T13:51:40;9.80;99.90
19755;DHT22;10036;47.812;9.274;2024-02-04T13:54:07;9.90;99.90
19755;DHT22;10036;47.812;9.274;2024-02-04T13:56:34;9.80;99.90
19755;DHT22;10036;47.812;9.274;2024-02-04T13:59:01;9.90;99.90
19755;DHT22;10036;47.812;9.274;2024-02-04T14:01:28;9.90;99.90
19755;DHT22;10036;47.812;9.274;2024-02-04T14:03:56;9.90;99.90
19755;DHT22;10036;47.812;9.274;2024-02-04T14:06:23;9.90;99.90
19755;DHT22;10036;47.812;9.274;2024-02-04T14:08:50;9.90;99.90
19755;DHT22;10036;47.812;9.274;2024-02-04T14:11:17;10.00;99.90
19755;DHT22;10036;47.812;9.274;2024-02-04T14:13:44;10.10;99.90
19755;DHT22;10036;47.812;9.274;2024-02-04T14:16:11;10.00;99.90
19755;DHT22;10036;47.812;9.274;2024-02-04T14:18:37;9.90;99.90
19755;DHT22;10036;47.812;9.274;2024-02-04T14:21:07;9.70;99.90
19755;DHT22;10036;47.812;9.274;2024-02-04T14:23:35;9.80;99.90
19755;DHT22;10036;47.812;9.274;2024-02-04T14:26:01;9.90;99.90
19755;DHT22;10036;47.812;9.274;2024-02-04T14:28:28;9.70;99.90
19755;DHT22;10036;47.812;9.274;2024-02-04T14:30:55;9.70;99.90
19755;DHT22;10036;47.812;9.274;2024-02-04T14:33:22;9.80;99.90
19755;DHT22;10036;47.812;9.274;2024-02-04T14:35:49;9.70;99.90
19755;DHT22;10036;47.812;9.274;2024-02-04T14:38:17;9.60;99.90
19755;DHT22;10036;47.812;9.274;2024-02-04T14:40:44;9.70;99.90
19755;DHT22;10036;47.812;9.274;2024-02-04T14:43:11;9.60;99.90
19755;DHT22;10036;47.812;9.274;2024-02-04T14:45:38;9.40;99.90
19755;DHT22;10036;47.812;9.274;2024-02-04T14:48:05;9.40;99.90
19755;DHT22;10036;47.812;9.274;2024-02-04T14:50:33;9.50;99.90
19755;DHT22;10036;47.812;9.274;2024-02-04T14:53:00;9.30;99.90
19755;DHT22;10036;47.812;9.274;2024-02-04T14:55:28;9.30;99.90
19755;DHT22;10036;47.812;9.274;2024-02-04T14:57:55;9.30;99.90
19755;DHT22;10036;47.812;9.274;2024-02-04T15:00:22;9.30;99.90
19755;DHT22;10036;47.812;9.274;2024-02-04T15:02:50;9.20;99.90
19755;DHT22;10036;47.812;9.274;2024-02-04T15:05:17;9.20;99.90
19755;DHT22;10036;47.812;9.274;2024-02-04T15:07:47;9.20;99.90
19755;DHT22;10036;47.812;9.274;2024-02-04T15:10:14;9.20;99.90
19755;DHT22;10036;47.812;9.274;2024-02-04T15:12:43;9.20;99.90
19755;DHT22;10036;47.812;9.274;2024-02-04T15:15:10;9.20;99.90
19755;DHT22;10036;47.812;9.274;2024-02-04T15:17:38;9.20;99.90
19755;DHT22;10036;47.812;9.274;2024-02-04T15:20:07;9.20;99.90
19755;DHT22;10036;47.812;9.274;2024-02-04T15:22:37;9.20;99.90
19755;DHT22;10036;47.812;9.274;2024-02-04T15:25:07;9.20;99.90
19755;DHT22;10036;47.812;9.274;2024-02-04T15:27:34;9.20;99.90
19755;DHT22;10036;47.812;9.274;2024-02-04T15:30:04;9.20;99.90
19755;DHT22;10036;47.812;9.274;2024-02-04T15:32:32;9.20;99.90
19755;DHT22;10036;47.812;9.274;2024-02-04T15:34:59;9.20;99.90
19755;DHT22;10036;47.812;9.274;2024-02-04T15:37:26;9.10;99.90
19755;DHT22;10036;47.812;9.274;2024-02-04T15:39:53;9.10;99.90
19755;DHT22;10036;47.812;9.274;2024-02-04T15:42:20;9.10;99.90
19755;DHT22;10036;47.812;9.274;2024-02-04T15:44:47;9.00;99.90
19755;DHT22;10036;47.812;9.274;2024-02-04T15:47:16;9.10;99.90
19755;DHT22;10036;47.812;9.274;2024-02-04T15:49:45;9.00;99.90
19755;DHT22;10036;47.812;9.274;2024-02-04T15:52:13;8.90;99.90
19755;DHT22;10036;47.812;9.274;2024-02-04T15:54:40;8.80;99.90